Time;durP1;ratioP1;P1;durP2;ratioP2;P2;SDS_P1;SDS_P2;PMS_P1;PMS_P2;Temp;Humidity;BMP_temperature;BMP_pressure;BME280_temperature;BME280_humidity;BME280_pressure;Samples;Min_cycle;Max_cycle;Signal;HPM_P1;HPM_P2
2022/05/22 00:00:42;;;;;;;8.90;1.90;;;;;;;12.24;75.88;98857.17;1742431;82;21121;-69
2022/05/22 00:03:08;;;;;;;10.88;2.47;;;;;;;12.22;75.55;98864.81;1742411;82;21812;-69
2022/05/22 00:05:35;;;;;;;6.87;1.80;;;;;;;12.21;74.51;98856.02;1742710;82;21049;-70
2022/05/22 00:08:04;;;;;;;18.23;2.58;;;;;;;12.23;74.48;98854.14;1742467;82;21518;-69
2022/05/22 00:10:31;;;;;;;41.85;2.70;;;;;;;12.25;74.63;98854.05;1742714;82;21549;-71
2022/05/22 00:12:57;;;;;;;5.85;2.00;;;;;;;12.23;74.73;98859.41;1743150;82;21541;-70
2022/05/22 00:15:24;;;;;;;10.88;2.98;;;;;;;12.23;74.94;98851.50;1748171;82;21595;-69
2022/05/22 00:17:50;;;;;;;9.88;3.00;;;;;;;12.24;74.86;98855.84;1747920;82;21606;-69
2022/05/22 00:20:19;;;;;;;15.13;2.77;;;;;;;12.27;75.06;98853.48;1748239;80;21078;-69
2022/05/22 00:22:47;;;;;;;13.70;2.70;;;;;;;12.28;74.91;98852.05;1748187;81;21086;-69
2022/05/22 00:25:14;;;;;;;9.55;2.50;;;;;;;12.28;74.96;98852.05;1748112;81;21039;-70
2022/05/22 00:27:41;;;;;;;9.73;2.40;;;;;;;12.27;74.85;98853.00;1748175;82;21519;-70
2022/05/22 00:30:10;;;;;;;9.58;2.50;;;;;;;12.26;75.00;98847.36;1748065;81;21055;-69
2022/05/22 00:32:38;;;;;;;10.08;3.25;;;;;;;12.21;75.04;98849.42;1748325;80;21082;-69
2022/05/22 00:35:06;;;;;;;8.48;2.90;;;;;;;12.17;75.06;98850.11;1747931;82;21034;-70
2022/05/22 00:37:33;;;;;;;8.03;2.83;;;;;;;12.12;75.29;98846.92;1748257;82;21344;-68
2022/05/22 00:40:00;;;;;;;6.78;2.95;;;;;;;12.02;75.55;98839.69;1748156;82;21249;-69
2022/05/22 00:42:28;;;;;;;6.50;2.30;;;;;;;11.99;75.74;98847.80;1748185;81;21540;-69
2022/05/22 00:44:55;;;;;;;9.98;2.47;;;;;;;11.90;75.64;98846.11;1747961;82;21094;-69
2022/05/22 00:47:23;;;;;;;8.58;2.08;;;;;;;11.86;75.67;98849.00;1748489;82;21098;-69
2022/05/22 00:49:55;;;;;;;5.40;2.10;;;;;;;11.81;75.89;98850.61;1748201;80;21058;-72
2022/05/22 00:52:27;;;;;;;5.33;1.95;;;;;;;11.75;75.95;98845.70;1721233;82;21832;-69
2022/05/22 00:55:00;;;;;;;8.93;2.10;;;;;;;11.70;76.21;98838.08;1721925;82;21445;-69
2022/05/22 00:57:35;;;;;;;7.70;2.00;;;;;;;11.63;76.18;98847.80;1748681;82;21023;-71
2022/05/22 01:00:07;;;;;;;9.83;2.05;;;;;;;11.58;76.25;98840.65;1747239;82;21567;-69
2022/05/22 01:05:20;;;;;;;5.75;1.90;;;;;;;11.47;76.45;98827.63;1748291;82;21133;-68
2022/05/22 01:07:49;;;;;;;6.25;1.82;;;;;;;11.38;76.69;98818.13;1748225;82;22536;-71
2022/05/22 01:10:15;;;;;;;5.85;1.95;;;;;;;11.31;76.41;98805.80;1748199;82;21063;-70
2022/05/22 01:12:43;;;;;;;9.18;1.90;;;;;;;11.29;76.44;98816.90;1748161;82;21102;-69
2022/05/22 01:15:11;;;;;;;8.00;2.00;;;;;;;11.26;76.67;98817.09;1748088;82;21573;-69
2022/05/22 01:17:43;;;;;;;7.33;2.00;;;;;;;11.24;76.64;98811.07;1748129;81;22348;-69
2022/05/22 01:20:11;;;;;;;7.67;2.08;;;;;;;11.18;76.76;98818.02;1748242;81;21049;-69
2022/05/22 01:22:38;;;;;;;5.35;2.40;;;;;;;11.14;76.67;98806.83;1748072;82;21056;-68
2022/05/22 01:25:06;;;;;;;7.33;1.80;;;;;;;11.12;76.74;98802.13;1748207;82;21108;-70
2022/05/22 01:27:34;;;;;;;13.60;2.40;;;;;;;11.11;76.85;98811.82;1748096;82;21057;-69
2022/05/22 01:30:14;;;;;;;7.37;2.22;;;;;;;11.06;76.84;98803.32;1747768;82;21120;-70
2022/05/22 01:32:42;;;;;;;6.75;2.15;;;;;;;11.02;77.01;98811.05;1747987;81;21034;-70
2022/05/22 01:35:11;;;;;;;6.17;1.67;;;;;;;11.01;76.91;98804.08;1748255;82;21108;-70
2022/05/22 01:37:38;;;;;;;8.68;1.87;;;;;;;10.98;77.04;98808.22;1748103;81;21588;-70
2022/05/22 01:40:09;;;;;;;11.03;2.20;;;;;;;10.99;76.92;98802.47;1747899;81;21109;-68
2022/05/22 01:42:39;;;;;;;6.20;2.22;;;;;;;10.97;77.03;98799.92;1748344;82;21577;-69
2022/05/22 01:45:07;;;;;;;8.35;2.25;;;;;;;10.94;77.01;98793.53;1748058;82;21068;-69
2022/05/22 01:47:36;;;;;;;7.92;2.08;;;;;;;10.92;77.06;98791.45;1748313;81;21048;-70
2022/05/22 01:50:05;;;;;;;7.58;2.47;;;;;;;10.90;77.35;98797.28;1748174;82;21037;-70
2022/05/22 01:52:32;;;;;;;8.50;2.20;;;;;;;10.86;77.54;98800.58;1748443;82;21028;-71
2022/05/22 01:55:01;;;;;;;6.67;1.70;;;;;;;10.84;77.77;98795.03;1747955;82;21130;-68
2022/05/22 01:57:30;;;;;;;4.90;1.55;;;;;;;10.80;78.13;98795.67;1748011;82;21056;-68
2022/05/22 01:59:57;;;;;;;2.62;1.57;;;;;;;10.76;78.40;98786.73;1747912;81;21009;-69
2022/05/22 02:02:24;;;;;;;9.70;1.98;;;;;;;10.76;78.44;98786.73;1748042;82;21006;-69
2022/05/22 02:04:54;;;;;;;4.42;2.02;;;;;;;10.74;78.86;98782.02;1747895;82;21097;-69
2022/05/22 02:10:09;;;;;;;4.65;1.40;;;;;;;10.69;79.25;98779.17;1747962;81;21588;-69
2022/05/22 02:12:37;;;;;;;4.25;1.20;;;;;;;10.65;79.82;98772.42;1748798;81;21061;-70
2022/05/22 02:15:07;;;;;;;3.77;1.22;;;;;;;10.62;80.34;98777.84;1721920;82;21114;-69
2022/05/22 02:17:34;;;;;;;5.80;1.45;;;;;;;10.61;80.71;98776.17;1693602;83;21066;-69
2022/05/22 02:20:01;;;;;;;9.73;1.50;;;;;;;10.61;80.95;98780.59;1720253;83;22093;-70
2022/05/22 02:22:44;;;;;;;6.70;1.20;;;;;;;10.59;81.21;98772.77;1712230;83;21064;-69
2022/05/22 02:25:13;;;;;;;4.78;1.65;;;;;;;10.60;81.60;98773.14;1719870;83;21130;-70
2022/05/22 02:27:40;;;;;;;3.37;1.00;;;;;;;10.59;81.70;98760.92;1720622;83;21606;-70
2022/05/22 02:30:10;;;;;;;4.67;1.20;;;;;;;10.57;82.03;98761.48;1720342;82;21098;-69
2022/05/22 02:32:40;;;;;;;6.45;1.40;;;;;;;10.57;82.38;98760.16;1720410;83;21163;-71
2022/05/22 02:35:08;;;;;;;3.05;1.20;;;;;;;10.56;82.44;98761.12;1719778;83;21083;-70
2022/05/22 02:37:42;;;;;;;2.95;1.30;;;;;;;10.55;82.87;98765.98;1720268;83;21151;-71
2022/05/22 02:40:12;;;;;;;6.80;1.20;;;;;;;10.55;82.68;98759.41;1718487;83;21122;-70
2022/05/22 02:42:47;;;;;;;1.57;1.07;;;;;;;10.55;83.01;98760.72;1719464;83;21035;-69
2022/05/22 02:45:19;;;;;;;5.67;1.45;;;;;;;10.56;83.25;98754.98;1719997;83;21173;-70
2022/05/22 02:47:47;;;;;;;3.17;1.10;;;;;;;10.59;83.22;98753.50;1720381;82;21027;-68
2022/05/22 02:50:16;;;;;;;4.22;1.45;;;;;;;10.62;83.39;98746.25;1720270;83;21133;-69
2022/05/22 02:52:43;;;;;;;8.60;1.27;;;;;;;10.67;83.21;98745.54;1720357;83;21105;-70
2022/05/22 02:55:11;;;;;;;3.25;1.50;;;;;;;10.71;83.10;98738.28;1720275;83;21102;-70
2022/05/22 02:57:40;;;;;;;2.42;1.35;;;;;;;10.75;82.96;98740.28;1720428;83;21881;-70
2022/05/22 03:00:12;;;;;;;6.17;1.20;;;;;;;10.77;82.78;98737.09;1720328;83;21618;-70
2022/05/22 03:02:41;;;;;;;5.92;1.30;;;;;;;10.79;82.72;98736.50;1720107;83;21086;-69
2022/05/22 03:05:09;;;;;;;4.12;1.20;;;;;;;10.81;82.68;98734.63;1720273;83;21162;-69
2022/05/22 03:07:39;;;;;;;3.37;1.00;;;;;;;10.85;82.81;98731.71;1720241;83;21071;-70
2022/05/22 03:10:11;;;;;;;2.35;1.10;;;;;;;10.91;82.65;98735.78;1716494;83;21346;-70
2022/05/22 03:12:38;;;;;;;;;;;;;;;11.01;82.57;98729.00;1722695;83;21109;-69
2022/05/22 03:15:08;;;;;;;5.60;1.80;;;;;;;11.16;81.80;98727.67;1722083;82;20174;-70
2022/05/22 03:17:36;;;;;;;3.10;1.50;;;;;;;11.28;81.50;98726.94;1750272;80;21109;-70
2022/05/22 03:20:04;;;;;;;4.67;1.47;;;;;;;11.40;80.97;98716.09;1750906;82;21512;-70
2022/05/22 03:22:31;;;;;;;3.37;1.32;;;;;;;11.52;80.85;98714.83;1750864;82;21880;-71
2022/05/22 03:24:59;;;;;;;4.95;2.20;;;;;;;11.62;80.20;98712.92;1750718;82;21091;-70
2022/05/22 03:27:26;;;;;;;2.98;1.30;;;;;;;11.68;80.02;98715.17;1750477;82;21023;-70
2022/05/22 03:29:53;;;;;;;3.77;1.35;;;;;;;11.72;80.02;98708.29;1750765;80;21106;-69
2022/05/22 03:32:20;;;;;;;2.27;1.25;;;;;;;11.76;79.97;98707.63;1750649;81;21632;-70
2022/05/22 03:34:48;;;;;;;1.92;1.25;;;;;;;11.79;79.93;98705.27;1750791;82;21913;-70
2022/05/22 03:37:14;;;;;;;3.00;1.20;;;;;;;11.78;79.88;98705.75;1750736;82;21057;-69
2022/05/22 03:39:42;;;;;;;8.35;1.40;;;;;;;11.78;80.00;98700.47;1751002;82;21110;-69
2022/05/22 03:42:10;;;;;;;8.68;1.12;;;;;;;11.78;79.49;98703.11;1751026;81;21027;-71
2022/05/22 03:44:38;;;;;;;3.22;1.35;;;;;;;11.73;79.70;98696.81;1751166;82;21062;-70
2022/05/22 03:47:06;;;;;;;5.95;1.15;;;;;;;11.72;79.94;98703.49;1751135;80;21168;-69
2022/05/22 03:49:37;;;;;;;5.17;1.42;;;;;;;11.69;80.17;98697.11;1749615;82;21110;-68
2022/05/22 03:52:06;;;;;;;4.10;1.40;;;;;;;11.68;80.99;98700.67;1751278;82;21113;-69
2022/05/22 03:54:34;;;;;;;3.52;1.85;;;;;;;11.68;81.19;98694.08;1751042;82;21057;-69
2022/05/22 03:57:00;;;;;;;5.55;1.42;;;;;;;11.67;81.24;98692.41;1750790;82;21070;-68
2022/05/22 03:59:30;;;;;;;4.20;1.40;;;;;;;11.65;81.46;98691.66;1750883;82;21144;-70
2022/05/22 04:01:56;;;;;;;5.60;1.40;;;;;;;11.66;81.49;98688.89;1750793;82;21027;-69
2022/05/22 04:04:24;;;;;;;1.67;1.37;;;;;;;11.67;81.48;98686.65;1751190;82;21495;-69
2022/05/22 04:06:51;;;;;;;3.05;1.30;;;;;;;11.71;81.42;98688.59;1750834;82;21599;-69
2022/05/22 04:09:19;;;;;;;4.20;1.75;;;;;;;11.76;81.85;98679.94;1750982;81;21050;-70
2022/05/22 04:11:49;;;;;;;3.33;1.40;;;;;;;11.83;81.63;98683.03;1749596;82;21152;-70
2022/05/22 04:14:19;;;;;;;8.48;1.60;;;;;;;11.89;81.72;98677.36;1734059;82;21108;-70
2022/05/22 04:16:48;;;;;;;7.33;1.52;;;;;;;11.92;81.66;98685.09;1750093;81;21073;-69
2022/05/22 04:19:15;;;;;;;4.45;1.30;;;;;;;11.95;81.59;98683.09;1750906;81;21065;-69
2022/05/22 04:21:44;;;;;;;4.35;1.40;;;;;;;11.98;81.57;98674.59;1750981;82;21077;-69
2022/05/22 04:26:57;;;;;;;2.58;1.27;;;;;;;11.98;81.90;98675.44;1750720;82;21045;-69
2022/05/22 04:29:24;;;;;;;2.90;1.60;;;;;;;12.03;81.68;98672.50;1683662;81;21537;-70
2022/05/22 04:31:51;;;;;;;2.47;1.72;;;;;;;12.09;81.54;98669.46;1751048;82;21283;-69
2022/05/22 04:34:22;;;;;;;;;;;;;;;12.18;81.41;98664.89;1752876;81;21060;-70
2022/05/22 04:36:53;;;;;;;6.42;1.70;;;;;;;12.28;80.91;98665.95;1750531;82;21799;-70
2022/05/22 04:39:21;;;;;;;5.37;1.40;;;;;;;12.33;81.07;98664.32;1748793;82;21069;-70
2022/05/22 04:41:56;;;;;;;2.47;1.32;;;;;;;12.37;80.85;98665.33;1750303;82;21044;-70
2022/05/22 04:44:23;;;;;;;7.28;1.42;;;;;;;12.39;80.98;98654.19;1750826;81;21081;-69
2022/05/22 04:46:52;;;;;;;7.08;1.45;;;;;;;12.43;80.97;98656.64;1749803;81;21083;-69
2022/05/22 04:49:19;;;;;;;8.38;1.75;;;;;;;12.41;81.01;98657.22;1751051;82;21241;-68
2022/05/22 04:51:46;;;;;;;6.78;1.92;;;;;;;12.39;81.20;98654.67;1750792;81;21111;-69
2022/05/22 04:54:13;;;;;;;4.83;2.00;;;;;;;12.43;81.03;98659.28;1751195;81;21065;-70
2022/05/22 04:56:42;;;;;;;9.55;2.08;;;;;;;12.44;80.63;98659.64;1750527;81;21108;-70
2022/05/22 04:59:10;;;;;;;3.33;1.92;;;;;;;12.41;80.39;98659.86;1749695;82;21044;-70
2022/05/22 05:01:38;;;;;;;4.92;1.80;;;;;;;12.44;80.55;98659.64;1750747;82;21133;-71
2022/05/22 05:04:08;;;;;;;7.72;2.90;;;;;;;12.45;80.66;98652.11;1750543;82;21060;-70
2022/05/22 05:06:40;;;;;;;8.35;1.72;;;;;;;12.44;80.60;98654.36;1747046;82;21085;-69
2022/05/22 05:09:08;;;;;;;7.75;2.05;;;;;;;12.39;80.50;98655.99;1750465;82;21699;-69
2022/05/22 05:11:34;;;;;;;7.67;1.95;;;;;;;12.35;80.14;98658.47;1723325;82;21505;-71
2022/05/22 05:14:07;;;;;;;8.78;2.20;;;;;;;12.28;80.54;98651.43;1750787;82;21483;-70
2022/05/22 05:16:33;;;;;;;5.78;2.30;;;;;;;12.28;80.76;98659.34;1748325;81;21557;-70
2022/05/22 05:19:02;;;;;;;8.13;2.72;;;;;;;12.27;80.90;98654.20;1747310;82;21582;-70
2022/05/22 05:21:29;;;;;;;9.65;2.95;;;;;;;12.30;80.72;98660.09;1748315;81;20998;-70
2022/05/22 05:23:57;;;;;;;12.35;3.22;;;;;;;12.33;80.48;98644.07;1748830;81;21142;-69
2022/05/22 05:26:25;;;;;;;7.62;3.00;;;;;;;12.41;80.24;98647.98;1748212;81;21119;-69
2022/05/22 05:28:53;;;;;;;7.78;3.27;;;;;;;12.54;80.28;98647.03;1748121;81;22165;-70
2022/05/22 05:31:39;;;;;;;8.13;3.30;;;;;;;12.65;78.92;98638.35;1748192;81;21024;-70
2022/05/22 05:34:06;;;;;;;9.25;3.15;;;;;;;12.79;78.01;98638.27;1748118;82;21026;-69
2022/05/22 05:36:35;;;;;;;7.53;2.98;;;;;;;12.91;77.39;98637.03;1740064;82;21068;-70
2022/05/22 05:39:20;;;;;;;6.97;2.50;;;;;;;13.02;76.68;98641.05;1748283;81;21218;-70
2022/05/22 05:41:58;;;;;;;6.53;2.90;;;;;;;13.13;76.12;98639.83;1746861;82;21747;-70
2022/05/22 05:44:26;;;;;;;8.10;2.98;;;;;;;13.17;75.00;98645.27;1747773;82;21123;-69
2022/05/22 05:47:01;;;;;;;12.07;3.55;;;;;;;13.19;74.77;98651.29;1746030;81;21005;-70
2022/05/22 05:49:30;;;;;;;8.60;3.45;;;;;;;13.23;74.27;98644.84;1747460;82;21603;-70
2022/05/22 05:51:58;;;;;;;6.42;2.77;;;;;;;13.25;74.16;98649.16;1743760;82;21643;-71
2022/05/22 05:54:25;;;;;;;10.03;3.50;;;;;;;13.25;73.83;98646.52;1748432;82;21015;-70
2022/05/22 05:57:14;;;;;;;13.98;3.35;;;;;;;13.22;74.67;98643.13;1747966;81;21072;-71
2022/05/22 05:59:43;;;;;;;8.45;3.30;;;;;;;13.23;74.98;98642.67;1747945;82;21084;-69
2022/05/22 06:02:13;;;;;;;12.33;3.85;;;;;;;13.26;74.03;98642.93;1747871;82;21010;-70
2022/05/22 06:04:40;;;;;;;10.43;3.30;;;;;;;13.28;73.89;98645.02;1748354;82;21205;-70
2022/05/22 06:07:09;;;;;;;9.03;2.52;;;;;;;13.27;72.81;98639.32;1748319;81;21076;-70
2022/05/22 06:09:37;;;;;;;7.80;2.58;;;;;;;13.20;71.71;98643.75;1748319;81;21552;-70
2022/05/22 06:12:24;;;;;;;6.42;2.17;;;;;;;13.18;72.20;98646.97;1746430;82;21096;-71
2022/05/22 06:14:56;;;;;;;7.55;2.60;;;;;;;13.16;72.15;98643.59;1747874;81;21034;-69
2022/05/22 06:17:35;;;;;;;6.42;2.33;;;;;;;13.15;72.42;98644.53;1747945;82;21986;-71
2022/05/22 06:20:07;;;;;;;7.35;2.02;;;;;;;13.11;71.37;98654.97;1748240;81;21017;-69
2022/05/22 06:22:44;;;;;;;4.42;2.02;;;;;;;13.05;71.46;98649.27;1748264;82;21045;-71
2022/05/22 06:25:14;;;;;;;8.23;2.40;;;;;;;13.02;71.20;98641.05;1744015;82;21167;-70
2022/05/22 06:27:48;;;;;;;8.68;2.40;;;;;;;12.99;71.86;98638.16;1747314;81;21065;-71
2022/05/22 06:30:33;;;;;;;12.10;2.62;;;;;;;13.00;72.22;98642.99;1748042;82;21615;-70
2022/05/22 06:33:20;;;;;;;6.55;2.17;;;;;;;13.02;72.73;98638.41;1748281;81;21045;-71
2022/05/22 06:36:10;;;;;;;10.40;2.65;;;;;;;12.99;72.68;98638.64;1745421;82;21098;-71
2022/05/22 06:41:45;;;;;;;10.75;2.55;;;;;;;12.94;73.49;98638.13;1745433;82;20994;-70
2022/05/22 06:44:30;;;;;;;10.45;2.52;;;;;;;12.88;73.71;98643.83;1748319;81;21539;-70
2022/05/22 06:47:13;;;;;;;8.08;2.72;;;;;;;12.82;74.42;98644.28;1721918;83;21127;-71
2022/05/22 06:49:45;;;;;;;10.15;2.70;;;;;;;12.80;75.24;98643.90;1740279;82;21571;-70
2022/05/22 06:52:16;;;;;;;9.55;2.95;;;;;;;12.73;74.88;98633.39;1741628;82;21564;-69
2022/05/22 06:54:51;;;;;;;7.03;2.83;;;;;;;12.71;75.37;98632.66;1734937;82;21041;-74
2022/05/22 06:57:25;;;;;;;6.47;2.77;;;;;;;12.76;75.38;98631.84;1709617;82;21130;-69
2022/05/22 07:00:00;;;;;;;6.40;2.65;;;;;;;12.84;75.01;98633.11;1746859;82;21069;-70
2022/05/22 07:02:40;;;;;;;10.82;2.77;;;;;;;12.87;74.96;98636.39;1730411;82;21143;-70
2022/05/22 07:05:10;;;;;;;8.18;2.87;;;;;;;12.91;75.59;98623.34;1747377;82;21604;-70
2022/05/22 07:07:45;;;;;;;9.78;2.67;;;;;;;12.96;76.35;98630.46;1745787;82;20998;-71
2022/05/22 07:10:14;;;;;;;11.68;2.98;;;;;;;12.96;76.03;98630.94;1731335;82;21119;-70
2022/05/22 07:12:54;;;;;;;;;;;;;;;12.94;76.10;98631.05;1749404;81;21057;-70
2022/05/22 07:15:39;;;;;;;9.20;2.20;;;;;;;12.86;75.49;98632.52;1744994;82;20174;-71
2022/05/22 07:18:07;;;;;;;7.55;1.82;;;;;;;12.78;75.12;98631.75;1740006;82;21071;-69
2022/05/22 07:20:52;;;;;;;6.08;1.60;;;;;;;12.73;75.20;98636.52;1742632;82;21583;-71
2022/05/22 07:23:21;;;;;;;5.22;1.67;;;;;;;12.70;75.51;98633.62;1741000;82;21239;-70
2022/05/22 07:25:53;;;;;;;6.37;1.37;;;;;;;12.71;76.47;98635.30;1739923;80;21027;-71
2022/05/22 07:30:15;;;;;;;4.28;1.32;;;;;;;12.85;75.75;98634.81;1795817;79;22586;-71
2022/05/22 07:32:46;;;;;;;5.70;1.30;;;;;;;12.85;75.10;98632.17;1753263;81;21612;-70
2022/05/22 07:35:16;;;;;;;2.15;1.20;;;;;;;12.86;74.93;98639.13;1749806;81;21027;-70
2022/05/22 07:38:01;;;;;;;3.83;1.35;;;;;;;12.83;74.73;98645.96;1673734;84;21085;-70
2022/05/22 07:40:33;;;;;;;3.52;1.25;;;;;;;12.85;74.61;98638.78;1732950;81;21577;-72
2022/05/22 07:43:08;;;;;;;2.75;1.10;;;;;;;12.86;74.83;98648.38;1695471;82;21045;-70
2022/05/22 07:45:39;;;;;;;1.98;0.90;;;;;;;12.86;74.95;98647.05;1721481;82;21592;-71
2022/05/22 07:48:13;;;;;;;1.95;0.78;;;;;;;12.92;75.48;98640.03;1723170;82;21167;-70
2022/05/22 07:50:59;;;;;;;2.47;0.60;;;;;;;13.10;75.39;98637.41;1636601;87;21063;-70
2022/05/22 07:53:44;;;;;;;3.75;0.75;;;;;;;13.30;73.87;98633.86;1694108;84;21020;-71
2022/05/22 07:56:15;;;;;;;1.85;0.65;;;;;;;13.33;74.03;98629.67;1681263;84;21483;-70
2022/05/22 07:58:47;;;;;;;5.58;0.65;;;;;;;13.29;75.03;98637.45;1689749;84;21576;-71
2022/05/22 08:01:32;;;;;;;1.82;0.90;;;;;;;13.21;76.11;98641.45;1693719;84;22253;-71
2022/05/22 08:04:01;;;;;;;3.90;1.30;;;;;;;13.11;77.54;98631.19;1679293;84;21088;-70
2022/05/22 08:06:44;;;;;;;1.62;0.90;;;;;;;12.99;78.67;98638.16;1645617;86;21100;-70
2022/05/22 08:09:21;;;;;;;1.05;0.85;;;;;;;12.87;79.37;98639.03;1641248;86;21092;-71
2022/05/22 08:11:50;;;;;;;1.50;0.72;;;;;;;12.75;79.90;98639.42;1665529;86;21060;-70
2022/05/22 08:14:17;;;;;;;3.15;0.95;;;;;;;12.70;81.15;98641.55;1665859;86;21655;-70
2022/05/22 08:16:43;;;;;;;3.58;1.45;;;;;;;12.74;82.63;98631.11;1665564;86;21060;-70
2022/05/22 08:19:12;;;;;;;2.05;1.02;;;;;;;12.87;83.86;98642.16;1665166;86;21059;-72
2022/05/22 08:21:40;;;;;;;3.60;1.52;;;;;;;13.05;84.46;98642.19;1662857;86;21560;-71
2022/05/22 08:24:09;;;;;;;7.08;1.40;;;;;;;13.27;83.01;98633.55;1665947;86;21107;-71
2022/05/22 08:26:38;;;;;;;2.02;1.17;;;;;;;13.60;82.12;98628.98;1665813;86;21250;-71
2022/05/22 08:29:05;;;;;;;5.58;1.75;;;;;;;13.98;79.76;98625.28;1662894;86;20993;-71
2022/05/22 08:31:33;;;;;;;4.65;2.00;;;;;;;14.43;77.29;98633.35;1721023;82;21038;-70
2022/05/22 08:34:00;;;;;;;7.42;2.08;;;;;;;14.82;74.24;98635.72;1721342;82;21120;-71
2022/05/22 08:36:27;;;;;;;6.60;2.02;;;;;;;15.04;73.47;98633.53;1721446;82;21073;-71
2022/05/22 08:38:54;;;;;;;3.87;1.80;;;;;;;15.17;70.47;98635.58;1721184;83;21148;-71
2022/05/22 08:41:27;;;;;;;5.33;1.80;;;;;;;15.28;70.45;98632.91;1720659;83;21232;-69
2022/05/22 08:44:21;;;;;;;5.47;1.98;;;;;;;15.46;69.05;98637.22;1720472;83;21025;-71
2022/05/22 08:47:06;;;;;;;10.25;1.92;;;;;;;15.64;68.82;98638.84;1720750;83;21120;-71
2022/05/22 08:49:47;;;;;;;6.20;1.50;;;;;;;15.65;67.50;98636.56;1719965;83;21081;-70
2022/05/22 08:52:39;;;;;;;3.67;1.25;;;;;;;15.43;67.42;98646.73;1721023;83;21152;-69
2022/05/22 08:58:56;;;;;;;1.10;0.80;;;;;;;15.28;67.20;98640.87;1720676;82;21546;-69
2022/05/22 09:00:58;;;;;;;3.10;1.05;;;;;;;15.09;68.24;98636.20;1720770;82;21119;-71
2022/05/22 09:03:47;;;;;;;3.42;1.30;;;;;;;14.94;68.87;98635.23;1685869;85;21124;-71
2022/05/22 09:06:14;;;;;;;5.42;2.02;;;;;;;14.81;70.04;98639.32;1685686;85;21166;-71
2022/05/22 09:08:47;;;;;;;3.75;1.55;;;;;;;14.62;71.47;98639.91;1685765;85;21285;-70
2022/05/22 09:11:40;;;;;;;4.42;2.00;;;;;;;14.37;73.54;98637.78;1720335;83;21031;-70
2022/05/22 09:14:32;;;;;;;5.45;1.95;;;;;;;14.13;73.59;98635.70;1683340;85;21139;-69
2022/05/22 09:17:08;;;;;;;5.83;2.58;;;;;;;13.96;74.42;98640.42;1714680;83;21049;-71
2022/05/22 09:19:46;;;;;;;9.18;2.70;;;;;;;13.81;74.28;98648.20;1714771;83;21851;-70
2022/05/22 09:22:19;;;;;;;11.97;2.67;;;;;;;13.67;75.40;98641.77;1714999;83;21080;-72
2022/05/22 09:25:12;;;;;;;4.00;2.37;;;;;;;13.49;76.25;98644.78;1709296;83;21128;-71
2022/05/22 09:28:01;;;;;;;8.20;2.42;;;;;;;13.35;76.78;98650.23;1708175;83;21623;-70
2022/05/22 09:31:04;;;;;;;6.12;2.20;;;;;;;13.15;77.45;98656.42;1719297;83;21076;-71
2022/05/22 09:34:01;;;;;;;3.15;1.80;;;;;;;13.05;78.51;98662.48;1720207;83;21128;-70
2022/05/22 09:36:59;;;;;;;6.62;2.40;;;;;;;12.88;79.86;98657.88;1720214;83;21056;-70
2022/05/22 09:39:50;;;;;;;4.08;2.20;;;;;;;12.75;81.62;98644.70;1717859;83;21060;-72
2022/05/22 09:42:28;;;;;;;5.03;2.35;;;;;;;12.63;81.76;98658.77;1720471;83;21045;-71
2022/05/22 09:45:19;;;;;;;6.10;2.20;;;;;;;12.57;82.99;98649.45;1720811;83;21105;-70
2022/05/22 09:48:15;;;;;;;4.83;1.92;;;;;;;12.55;85.64;98667.68;1720408;83;21641;-71
2022/05/22 09:50:55;;;;;;;6.70;2.52;;;;;;;12.43;87.47;98673.80;1720451;83;21084;-69
2022/05/22 09:53:33;;;;;;;5.55;2.20;;;;;;;12.22;90.82;98683.53;1720322;83;21079;-70
2022/05/22 09:56:31;;;;;;;9.30;2.17;;;;;;;12.05;93.42;98682.48;1720563;83;21080;-70
2022/05/22 09:59:18;;;;;;;5.30;2.37;;;;;;;11.91;95.33;98682.91;1720747;83;21080;-70
2022/05/22 10:01:49;;;;;;;5.70;2.83;;;;;;;11.91;95.36;98677.63;1720189;83;21120;-71
2022/05/22 10:04:33;;;;;;;;;;;;;;;12.15;96.82;98679.62;1697167;83;21644;-71
2022/05/22 10:07:36;;;;;;;5.80;1.60;;;;;;;12.39;95.48;98672.67;1685800;84;20194;-71
2022/05/22 10:10:26;;;;;;;3.65;1.40;;;;;;;12.53;93.39;98678.81;1661291;85;26650;-71
2022/05/22 10:13:10;;;;;;;2.17;1.30;;;;;;;12.69;92.03;98685.22;1668726;86;21060;-71
2022/05/22 10:15:50;;;;;;;5.80;2.00;;;;;;;12.75;88.15;98691.41;1680795;85;21308;-70
2022/05/22 10:18:58;;;;;;;3.80;1.67;;;;;;;12.68;86.74;98677.78;1681015;85;21085;-70
2022/05/22 10:21:50;;;;;;;4.80;1.92;;;;;;;12.58;86.88;98699.15;1680824;85;21125;-71
2022/05/22 10:24:43;;;;;;;2.75;1.40;;;;;;;12.51;86.13;98701.84;1681223;85;21098;-71
2022/05/22 10:27:58;;;;;;;1.98;1.12;;;;;;;12.49;86.72;98700.64;1680875;85;21101;-71
2022/05/22 10:30:30;;;;;;;4.47;1.02;;;;;;;12.50;87.54;98708.08;1674784;84;21125;-71
2022/05/22 10:33:25;;;;;;;2.15;1.00;;;;;;;12.46;89.60;98709.23;1670585;85;21118;-71
2022/05/22 10:36:12;;;;;;;2.20;1.10;;;;;;;12.47;91.76;98717.51;1671069;85;21093;-70
2022/05/22 10:38:53;;;;;;;1.60;0.93;;;;;;;12.47;92.86;98721.47;1670614;85;21031;-71
2022/05/22 10:44:14;;;;;;;1.27;0.55;;;;;;;12.43;96.12;98718.69;1670718;85;21242;-70
2022/05/22 10:46:52;;;;;;;2.57;0.90;;;;;;;12.44;96.96;98721.69;1670805;85;21079;-71
2022/05/22 10:49:22;;;;;;;1.27;0.80;;;;;;;12.44;97.17;98724.33;1670999;85;21078;-70
2022/05/22 10:52:00;;;;;;;2.45;1.20;;;;;;;12.39;99.30;98717.55;1671190;85;26576;-72
2022/05/22 10:54:34;;;;;;;1.77;1.10;;;;;;;12.41;98.98;98719.27;1670988;85;21094;-69
2022/05/22 10:57:15;;;;;;;2.42;1.05;;;;;;;12.26;99.38;98724.62;1670969;85;21900;-71
2022/05/22 10:59:42;;;;;;;4.03;1.77;;;;;;;12.13;99.95;98721.09;1668479;85;21114;-70
2022/05/22 11:02:25;;;;;;;4.58;1.37;;;;;;;12.04;100.00;98722.54;1670647;85;21073;-71
2022/05/22 11:04:54;;;;;;;3.52;1.45;;;;;;;11.93;100.00;98732.46;1670819;85;21066;-70
2022/05/22 11:07:44;;;;;;;4.67;1.37;;;;;;;11.79;100.00;98732.48;1670890;85;21109;-71
2022/05/22 11:10:37;;;;;;;4.35;1.85;;;;;;;11.73;100.00;98735.50;1670896;84;21170;-71
2022/05/22 11:13:12;;;;;;;4.03;2.00;;;;;;;11.62;100.00;98731.38;1669756;85;21089;-70
2022/05/22 11:15:42;;;;;;;5.55;2.02;;;;;;;11.58;100.00;98735.18;1658546;86;21030;-70
2022/05/22 11:18:19;;;;;;;5.40;1.97;;;;;;;11.52;100.00;98739.88;1658976;86;21066;-70
2022/05/22 11:21:11;;;;;;;3.58;1.80;;;;;;;11.40;100.00;98727.95;1658205;86;21128;-71
2022/05/22 11:24:12;;;;;;;5.30;1.98;;;;;;;11.30;100.00;98742.19;1658419;86;21103;-70
2022/05/22 11:27:02;;;;;;;3.83;2.20;;;;;;;11.26;100.00;98743.31;1658732;86;21077;-71
2022/05/22 11:29:52;;;;;;;5.67;2.47;;;;;;;11.24;100.00;98748.66;1706811;83;21030;-71
2022/05/22 11:33:11;;;;;;;3.35;1.60;;;;;;;11.20;100.00;98747.16;1716397;83;21069;-70
2022/05/22 11:36:20;;;;;;;1.92;1.35;;;;;;;11.17;100.00;98757.05;1667042;85;21620;-71
2022/05/22 11:39:30;;;;;;;2.25;1.17;;;;;;;11.17;100.00;98761.84;1716501;82;21280;-70
2022/05/22 11:42:16;;;;;;;1.75;1.40;;;;;;;11.18;100.00;98764.00;1719985;83;21092;-69
2022/05/22 11:45:13;;;;;;;3.72;1.50;;;;;;;11.19;100.00;98755.17;1719989;83;21631;-71
2022/05/22 11:48:09;;;;;;;1.35;1.15;;;;;;;11.16;100.00;98755.34;1720101;83;21609;-70
2022/05/22 11:50:56;;;;;;;2.20;1.20;;;;;;;11.17;100.00;98762.32;1720632;83;21092;-71
2022/05/22 11:53:54;;;;;;;2.60;1.07;;;;;;;11.22;100.00;98761.56;1720433;83;23628;-71
2022/05/22 11:57:15;;;;;;;1.57;1.00;;;;;;;11.23;100.00;98763.27;1719942;83;21633;-72
2022/05/22 12:00:08;;;;;;;1.20;1.00;;;;;;;11.21;100.00;98765.15;1720157;83;21056;-71
2022/05/22 12:02:52;;;;;;;3.20;0.70;;;;;;;11.22;100.00;98757.13;1720102;83;21057;-71
2022/05/22 12:06:05;;;;;;;2.60;1.60;;;;;;;11.18;100.00;98767.95;1720362;83;21083;-71
2022/05/22 12:08:39;;;;;;;3.20;1.37;;;;;;;11.15;100.00;98771.63;1720301;82;21112;-70
2022/05/22 12:11:40;;;;;;;5.00;1.52;;;;;;;11.10;100.00;98775.86;1720470;83;21109;-71
2022/05/22 12:14:21;;;;;;;5.45;2.40;;;;;;;11.08;100.00;98771.63;1723327;83;22007;-71
2022/05/22 12:17:17;;;;;;;3.08;1.67;;;;;;;11.05;100.00;98773.98;1725849;83;21083;-69
2022/05/22 12:20:10;;;;;;;3.08;2.08;;;;;;;11.02;100.00;98769.35;1725956;82;21545;-70
2022/05/22 12:25:26;;;;;;;2.70;1.85;;;;;;;11.00;100.00;98776.05;1726389;83;21534;-71
2022/05/22 12:27:53;;;;;;;4.95;2.60;;;;;;;11.00;100.00;98776.53;1725714;82;21046;-71
2022/05/22 12:30:30;;;;;;;2.98;1.95;;;;;;;11.02;100.00;98778.12;1726075;83;21545;-70